createdAt,value
2018-12-12T00:07:00.000Z,1016.48
2018-12-12T00:17:00.000Z,1016.432
2018-12-12T00:27:00.000Z,1016.364
2018-12-12T00:37:00.000Z,1016.515
2018-12-12T00:47:00.000Z,1016.533
2018-12-12T00:57:00.000Z,1016.592
2018-12-12T01:07:00.000Z,1016.483
2018-12-12T01:17:00.000Z,1016.6
2018-12-12T01:27:00.000Z,1016.598
2018-12-12T01:37:00.000Z,1016.655
2018-12-12T01:47:00.000Z,1016.693
2018-12-12T01:57:01.000Z,1016.666
2018-12-12T02:07:00.000Z,1016.69
2018-12-12T02:17:00.000Z,1016.77
2018-12-12T02:27:00.000Z,1016.965
2018-12-12T02:37:00.000Z,1017.03
2018-12-12T02:47:00.000Z,1016.908
2018-12-12T02:57:00.000Z,1016.926
2018-12-12T03:07:00.000Z,1016.956
2018-12-12T03:17:00.000Z,1017.093
2018-12-12T03:27:00.000Z,1017.259
2018-12-12T03:37:00.000Z,1017.236
2018-12-12T03:47:00.000Z,1017.176
2018-12-12T03:57:00.000Z,1017.193
2018-12-12T04:07:00.000Z,1017.158
2018-12-12T04:17:00.000Z,1017.206
2018-12-12T04:27:01.000Z,1017.251
2018-12-12T04:37:01.000Z,1017.277
2018-12-12T04:47:01.000Z,1017.325
2018-12-12T04:57:01.000Z,1017.292
2018-12-12T05:07:01.000Z,1017.176
2018-12-12T05:17:01.000Z,1017.227
2018-12-12T05:27:01.000Z,1017.445
2018-12-12T05:37:01.000Z,1017.543
2018-12-12T05:47:01.000Z,1017.516
2018-12-12T05:57:01.000Z,1017.575
2018-12-12T06:07:01.000Z,1017.658
2018-12-12T06:17:01.000Z,1017.796
2018-12-12T06:27:01.000Z,1017.713
2018-12-12T06:37:01.000Z,1017.73
2018-12-12T06:47:01.000Z,1017.799
2018-12-12T06:57:01.000Z,1017.91
2018-12-12T07:07:01.000Z,1017.923
2018-12-12T07:17:01.000Z,1018.017
2018-12-12T07:27:01.000Z,1018.042
2018-12-12T07:37:01.000Z,1018.099
2018-12-12T07:47:01.000Z,1018.165
2018-12-12T07:57:01.000Z,1018.327
2018-12-12T08:07:01.000Z,1018.341
2018-12-12T08:17:01.000Z,1018.469
2018-12-12T08:27:01.000Z,1018.485
2018-12-12T08:37:01.000Z,1018.51
2018-12-12T08:47:01.000Z,1018.509
2018-12-12T08:57:01.000Z,1018.554
2018-12-12T09:07:01.000Z,1018.624
2018-12-12T09:17:01.000Z,1018.619
2018-12-12T09:27:01.000Z,1018.703
2018-12-12T09:37:01.000Z,1018.815
2018-12-12T09:47:01.000Z,1018.79
2018-12-12T09:57:01.000Z,1018.818
2018-12-12T10:07:01.000Z,1018.837
2018-12-12T10:17:01.000Z,1018.862
2018-12-12T10:27:01.000Z,1018.818
2018-12-12T10:37:01.000Z,1018.723
2018-12-12T10:47:01.000Z,1018.684
2018-12-12T10:57:01.000Z,1018.647
2018-12-12T11:07:01.000Z,1018.612
2018-12-12T11:17:02.000Z,1018.582
2018-12-12T11:27:01.000Z,1018.586
2018-12-12T11:37:02.000Z,1018.553
2018-12-12T11:47:01.000Z,1018.553
2018-12-12T11:57:01.000Z,1018.508
2018-12-12T12:07:01.000Z,1018.36
2018-12-12T12:17:02.000Z,1018.301
2018-12-12T12:27:01.000Z,1018.269
2018-12-12T12:37:02.000Z,1018.174
2018-12-12T12:47:02.000Z,1018.061
2018-12-12T12:57:02.000Z,1017.943
2018-12-12T13:07:02.000Z,1017.902
2018-12-12T13:17:03.000Z,1017.859
2018-12-12T13:27:02.000Z,1017.867
2018-12-12T13:37:02.000Z,1017.715
2018-12-12T13:47:02.000Z,1017.731
2018-12-12T13:57:02.000Z,1017.592
2018-12-12T14:07:02.000Z,1017.571
2018-12-12T14:17:02.000Z,1017.52
2018-12-12T14:27:02.000Z,1017.461
2018-12-12T14:37:02.000Z,1017.431
2018-12-12T14:47:02.000Z,1017.388
2018-12-12T14:57:02.000Z,1017.429
2018-12-12T15:07:02.000Z,1017.528
2018-12-12T15:17:02.000Z,1017.603
2018-12-12T15:37:02.000Z,1017.694
2018-12-12T15:47:02.000Z,1017.755
2018-12-12T15:57:02.000Z,1017.849
2018-12-12T16:07:02.000Z,1017.84
2018-12-12T16:17:02.000Z,1017.768
2018-12-12T16:27:02.000Z,1017.733
2018-12-12T16:37:02.000Z,1017.786
2018-12-12T16:47:06.000Z,1017.762
2018-12-12T16:57:02.000Z,1017.754
2018-12-12T17:07:02.000Z,1017.692
2018-12-12T17:17:02.000Z,1017.631
2018-12-12T17:27:02.000Z,1017.632
2018-12-12T17:37:02.000Z,1017.69
2018-12-12T17:47:02.000Z,1017.696
2018-12-12T17:57:02.000Z,1017.732
2018-12-12T18:07:02.000Z,1017.657
2018-12-12T18:17:02.000Z,1017.652
2018-12-12T18:27:02.000Z,1017.594
2018-12-12T18:37:02.000Z,1017.572
2018-12-12T18:47:06.000Z,1017.546
2018-12-12T18:57:02.000Z,1017.559
2018-12-12T19:07:02.000Z,1017.48
2018-12-12T19:17:02.000Z,1017.51
2018-12-12T19:27:02.000Z,1017.582
2018-12-12T19:37:02.000Z,1017.687
2018-12-12T19:47:02.000Z,1017.713
2018-12-12T19:57:05.000Z,1017.631
2018-12-12T20:07:02.000Z,1017.569
2018-12-12T20:17:02.000Z,1017.544
2018-12-12T20:27:02.000Z,1017.504
2018-12-12T20:37:02.000Z,1017.524
2018-12-12T20:47:02.000Z,1017.554
2018-12-12T20:57:02.000Z,1017.511
2018-12-12T21:07:03.000Z,1017.497
2018-12-12T21:17:03.000Z,1017.535
2018-12-12T21:27:03.000Z,1017.523
2018-12-12T21:37:03.000Z,1017.466
2018-12-12T21:47:03.000Z,1017.451
2018-12-12T21:57:03.000Z,1017.335
2018-12-12T22:07:03.000Z,1017.391
2018-12-12T22:17:03.000Z,1017.405
2018-12-12T22:27:03.000Z,1017.305
2018-12-12T22:37:03.000Z,1017.249
2018-12-12T22:47:03.000Z,1017.198
2018-12-12T22:57:03.000Z,1017.195
2018-12-12T23:07:03.000Z,1017.223
2018-12-12T23:17:03.000Z,1017.119
2018-12-12T23:27:03.000Z,1017.059
2018-12-12T23:37:03.000Z,1016.862
2018-12-12T23:47:03.000Z,1016.897
2018-12-12T23:57:03.000Z,1016.74
